createdAt,value
2022-07-31T00:01:20.709Z,22.40
2022-07-31T00:06:24.642Z,22.39
2022-07-31T00:11:27.232Z,22.38
2022-07-31T00:16:29.818Z,22.37
2022-07-31T00:21:33.933Z,22.39
2022-07-31T00:26:36.504Z,22.36
2022-07-31T00:31:39.751Z,22.34
2022-07-31T00:36:43.784Z,22.36
2022-07-31T00:41:47.655Z,22.31
2022-07-31T00:46:51.239Z,22.17
2022-07-31T00:51:55.522Z,22.12
2022-07-31T00:56:58.125Z,21.88
2022-07-31T01:02:01.647Z,21.90
2022-07-31T01:07:06.421Z,21.85
2022-07-31T01:12:15.919Z,21.84
2022-07-31T01:17:20.109Z,21.83
2022-07-31T01:22:45.480Z,21.77
2022-07-31T01:28:03.408Z,21.81
2022-07-31T01:33:14.968Z,21.85
2022-07-31T01:38:23.201Z,21.79
2022-07-31T01:43:30.563Z,21.66
2022-07-31T01:48:36.436Z,21.52
2022-07-31T01:53:41.635Z,21.61
2022-07-31T01:58:46.618Z,21.52
2022-07-31T02:04:12.290Z,21.68
2022-07-31T02:09:16.249Z,21.76
2022-07-31T02:14:20.909Z,21.67
2022-07-31T02:19:25.877Z,21.58
2022-07-31T02:24:28.799Z,21.51
2022-07-31T02:29:33.908Z,21.60
2022-07-31T02:34:39.137Z,21.58
2022-07-31T02:39:43.469Z,21.50
2022-07-31T02:44:47.294Z,21.47
2022-07-31T02:49:51.669Z,21.55
2022-07-31T02:54:55.704Z,21.61
2022-07-31T03:00:01.864Z,21.65
2022-07-31T03:05:07.359Z,21.68
2022-07-31T03:10:11.524Z,21.69
2022-07-31T03:15:20.578Z,21.70
2022-07-31T03:20:24.730Z,21.66
2022-07-31T03:25:27.918Z,21.65
2022-07-31T03:30:30.778Z,21.60
2022-07-31T03:35:39.054Z,21.63
2022-07-31T03:40:44.927Z,21.67
2022-07-31T03:45:49.493Z,21.67
2022-07-31T03:50:54.101Z,21.66
2022-07-31T03:55:57.548Z,21.60
2022-07-31T04:01:00.528Z,21.56
2022-07-31T04:06:08.999Z,21.60
2022-07-31T04:11:11.695Z,21.63
2022-07-31T04:16:14.313Z,21.59
2022-07-31T04:21:18.386Z,21.61
2022-07-31T04:26:26.394Z,21.55
2022-07-31T04:31:38.611Z,21.53
2022-07-31T04:36:45.100Z,21.51
2022-07-31T04:41:48.189Z,21.52
2022-07-31T04:46:51.704Z,21.49
2022-07-31T04:51:56.129Z,21.50
2022-07-31T04:56:58.783Z,21.51
2022-07-31T05:02:02.044Z,21.53
2022-07-31T05:07:06.410Z,21.56
2022-07-31T05:12:09.589Z,21.57
2022-07-31T05:17:12.260Z,21.44
2022-07-31T05:22:37.810Z,21.46
2022-07-31T05:28:00.527Z,21.49
2022-07-31T05:33:05.279Z,21.56
2022-07-31T05:38:11.879Z,21.58
2022-07-31T05:43:33.464Z,21.60
2022-07-31T05:48:52.470Z,21.56
2022-07-31T05:53:57.136Z,21.66
2022-07-31T05:59:18.736Z,21.70
2022-07-31T06:04:21.430Z,21.72
2022-07-31T06:09:25.455Z,21.73
2022-07-31T06:14:29.269Z,21.63
2022-07-31T06:19:53.629Z,21.76
2022-07-31T06:24:58.524Z,21.79
2022-07-31T06:30:01.509Z,21.81
2022-07-31T06:35:05.718Z,21.82
2022-07-31T06:40:18.573Z,21.74
2022-07-31T06:45:35.700Z,21.65
2022-07-31T06:51:28.260Z,21.66
2022-07-31T06:56:28.664Z,21.68
2022-07-31T07:01:32.140Z,21.58
2022-07-31T07:06:35.019Z,21.67
2022-07-31T07:11:39.177Z,21.63
2022-07-31T07:16:41.998Z,21.66
2022-07-31T07:21:44.569Z,21.70
2022-07-31T07:26:48.618Z,21.73
2022-07-31T07:31:51.469Z,21.80
2022-07-31T07:36:55.107Z,21.78
2022-07-31T07:42:03.160Z,21.75
2022-07-31T07:47:07.856Z,21.77
2022-07-31T07:52:10.838Z,21.82
2022-07-31T07:57:16.993Z,21.81
2022-07-31T08:02:38.625Z,21.86
2022-07-31T08:07:43.864Z,21.92
2022-07-31T08:13:06.355Z,21.96
2022-07-31T08:18:29.863Z,21.90
2022-07-31T08:23:32.603Z,22.05
2022-07-31T08:28:38.626Z,22.04
2022-07-31T08:33:42.131Z,21.95
2022-07-31T08:38:45.161Z,22.15
2022-07-31T08:44:12.321Z,21.88
2022-07-31T08:49:17.607Z,22.10
2022-07-31T08:54:23.631Z,22.17
2022-07-31T08:59:27.700Z,22.38
2022-07-31T09:04:32.252Z,22.34
2022-07-31T09:09:50.899Z,22.39
2022-07-31T09:14:55.839Z,22.49
2022-07-31T09:20:00.614Z,22.42
2022-07-31T09:25:12.990Z,22.50
2022-07-31T09:30:17.289Z,22.35
2022-07-31T09:35:47.634Z,22.71
2022-07-31T09:40:56.817Z,22.80
2022-07-31T09:46:08.430Z,22.70
2022-07-31T09:51:11.138Z,23.01
2022-07-31T09:56:15.913Z,23.10
2022-07-31T10:01:20.631Z,23.05
2022-07-31T10:06:26.295Z,23.28
2022-07-31T10:11:31.139Z,23.38
2022-07-31T10:16:49.607Z,23.51
2022-07-31T10:22:13.318Z,23.57
2022-07-31T10:27:18.999Z,23.70
2022-07-31T10:32:28.052Z,23.69
2022-07-31T10:37:57.329Z,23.69
2022-07-31T10:43:25.588Z,23.79
2022-07-31T10:48:53.109Z,23.83
2022-07-31T10:54:21.952Z,23.81
2022-07-31T10:59:42.916Z,23.94
2022-07-31T11:05:27.876Z,23.85
2022-07-31T11:10:50.723Z,23.82
2022-07-31T11:16:19.922Z,23.91
2022-07-31T11:21:46.811Z,23.93
2022-07-31T11:26:50.685Z,23.94
2022-07-31T11:31:53.319Z,24.07
2022-07-31T11:36:57.588Z,24.17
2022-07-31T11:42:03.633Z,24.22
2022-07-31T11:47:27.594Z,24.34
2022-07-31T11:52:36.788Z,24.44
2022-07-31T11:57:52.292Z,24.56
2022-07-31T12:02:55.767Z,24.62
2022-07-31T12:08:00.010Z,24.57
2022-07-31T12:13:04.396Z,24.57
2022-07-31T12:18:07.744Z,24.64
2022-07-31T12:23:40.255Z,24.78
2022-07-31T12:28:35.507Z,24.89
2022-07-31T12:33:43.042Z,25.00
2022-07-31T12:38:49.059Z,25.12
2022-07-31T12:43:52.808Z,25.03
2022-07-31T12:48:56.071Z,25.02
2022-07-31T12:54:00.975Z,24.96
2022-07-31T12:59:04.366Z,25.06
2022-07-31T13:04:18.603Z,25.10
2022-07-31T13:09:24.024Z,25.07
2022-07-31T13:14:27.271Z,25.11
2022-07-31T13:19:31.508Z,25.25
2022-07-31T13:24:36.400Z,25.25
2022-07-31T13:29:40.039Z,25.17
2022-07-31T13:34:42.781Z,25.08
2022-07-31T13:39:46.867Z,25.19
2022-07-31T13:44:49.716Z,25.35
2022-07-31T13:49:53.563Z,25.35
2022-07-31T13:54:58.104Z,25.23
2022-07-31T14:00:00.733Z,25.11
2022-07-31T14:05:03.691Z,24.98
2022-07-31T14:10:11.384Z,25.14
2022-07-31T14:15:15.386Z,25.55
2022-07-31T14:20:18.473Z,25.97
2022-07-31T14:25:22.558Z,25.88
2022-07-31T14:30:25.749Z,25.50
2022-07-31T14:35:28.976Z,26.03
2022-07-31T14:40:33.113Z,26.29
2022-07-31T14:45:49.996Z,26.22
2022-07-31T14:50:54.698Z,26.13
2022-07-31T14:56:03.798Z,25.95
2022-07-31T15:01:06.968Z,25.70
2022-07-31T15:06:51.411Z,25.66
2022-07-31T15:11:57.377Z,25.66
2022-07-31T15:16:58.069Z,25.71
2022-07-31T15:22:10.210Z,25.84
2022-07-31T15:27:24.173Z,26.00
2022-07-31T15:32:27.509Z,25.96
2022-07-31T15:37:31.049Z,25.96
2022-07-31T15:42:37.923Z,25.90
2022-07-31T15:47:42.366Z,25.85
2022-07-31T15:52:44.972Z,25.80
2022-07-31T15:57:49.466Z,25.75
2022-07-31T16:02:52.959Z,25.74
2022-07-31T16:08:31.905Z,25.68
2022-07-31T16:13:19.833Z,25.58
2022-07-31T16:18:22.463Z,25.54
2022-07-31T16:23:25.654Z,25.22
2022-07-31T16:28:29.663Z,25.36
2022-07-31T16:33:32.232Z,25.00
2022-07-31T16:38:34.883Z,24.56
2022-07-31T16:43:49.955Z,23.82
2022-07-31T16:48:54.200Z,23.39
2022-07-31T16:54:13.070Z,23.19
2022-07-31T16:59:20.704Z,23.30
2022-07-31T17:04:23.291Z,22.93
2022-07-31T17:09:26.012Z,22.86
2022-07-31T17:14:30.078Z,22.98
2022-07-31T17:19:41.569Z,23.03
2022-07-31T17:24:50.396Z,22.87
2022-07-31T17:29:55.332Z,22.95
2022-07-31T17:34:57.901Z,22.95
2022-07-31T17:40:01.161Z,22.67
2022-07-31T17:45:06.126Z,22.55
2022-07-31T17:50:10.597Z,22.41
2022-07-31T17:55:13.360Z,22.52
2022-07-31T18:00:17.968Z,22.42
2022-07-31T18:05:20.555Z,22.59
2022-07-31T18:10:38.614Z,22.44
2022-07-31T18:15:48.168Z,22.35
2022-07-31T18:20:51.027Z,22.44
2022-07-31T18:25:53.727Z,22.33
2022-07-31T18:30:58.038Z,22.47
2022-07-31T18:36:00.925Z,22.53
2022-07-31T18:41:03.832Z,22.66
2022-07-31T18:46:07.832Z,22.68
2022-07-31T18:51:10.682Z,22.65
2022-07-31T18:56:13.909Z,22.65
2022-07-31T19:01:17.930Z,22.49
2022-07-31T19:06:22.550Z,22.52
2022-07-31T19:11:27.496Z,22.51
2022-07-31T19:16:31.607Z,22.50
2022-07-31T19:21:42.346Z,22.48
2022-07-31T19:26:45.360Z,22.45
2022-07-31T19:31:49.528Z,22.47
2022-07-31T19:36:52.223Z,22.44
2022-07-31T19:42:10.914Z,22.45
2022-07-31T19:47:16.125Z,22.37
2022-07-31T19:52:19.775Z,22.38
2022-07-31T19:57:23.423Z,22.22
2022-07-31T20:02:27.614Z,22.28
2022-07-31T20:07:32.942Z,22.22
2022-07-31T20:12:36.719Z,22.24
2022-07-31T20:17:40.761Z,22.21
2022-07-31T20:22:43.416Z,22.17
2022-07-31T20:27:46.274Z,22.10
2022-07-31T20:32:50.557Z,22.11
2022-07-31T20:37:55.569Z,22.14
2022-07-31T20:42:58.235Z,22.12
2022-07-31T20:48:02.394Z,22.11
2022-07-31T20:53:05.999Z,22.14
2022-07-31T20:58:08.606Z,22.11
2022-07-31T21:03:12.576Z,22.12
2022-07-31T21:08:15.516Z,22.10
2022-07-31T21:13:18.396Z,22.05
2022-07-31T21:18:22.950Z,22.02
2022-07-31T21:23:26.821Z,22.01
2022-07-31T21:28:29.755Z,22.15
2022-07-31T21:33:34.167Z,22.08
2022-07-31T21:38:37.516Z,21.99
2022-07-31T21:43:58.284Z,22.07
2022-07-31T21:49:04.885Z,22.05
2022-07-31T21:54:07.740Z,22.03
2022-07-31T21:59:10.369Z,21.99
2022-07-31T22:04:14.524Z,21.89
2022-07-31T22:09:18.865Z,21.85
2022-07-31T22:14:22.203Z,21.78
2022-07-31T22:19:26.781Z,21.79
2022-07-31T22:24:29.896Z,21.74
2022-07-31T22:29:36.310Z,21.73
2022-07-31T22:34:40.839Z,21.76
2022-07-31T22:39:43.621Z,21.74
2022-07-31T22:44:46.577Z,21.75
2022-07-31T22:49:50.881Z,21.75
2022-07-31T22:54:53.486Z,21.70
2022-07-31T22:59:56.308Z,21.62
2022-07-31T23:05:00.279Z,21.65
2022-07-31T23:10:03.201Z,21.60
2022-07-31T23:15:06.795Z,21.60
2022-07-31T23:20:11.744Z,21.53
2022-07-31T23:25:15.442Z,21.47
2022-07-31T23:30:19.637Z,21.47
2022-07-31T23:35:23.683Z,21.51
2022-07-31T23:40:26.251Z,21.51
2022-07-31T23:45:28.824Z,21.55
2022-07-31T23:50:33.461Z,21.56
2022-07-31T23:55:39.206Z,21.56
